Weather at Trenton / Mountain View Airport

Public forecast

Using degrees Celsius for public forecast. Weather courtesy of forecast.io.

Closest aviation weather report (METAR) to Trenton / Mountain View Airport

Closest report is CFB Trenton, 8.7 nm (16.1 km) WNW. Retrieved 2020/10/26 15:00 UTC (16 minutes ago):

CYTR 261500Z 02005KT 7SM BKN005 OVC017 04/04 A3008 RMK SF6SC2 SLP189

Closest aviation forecast (TAF) to Trenton / Mountain View Airport

Closest forecast is CFB Trenton, 8.7 nm (16.1 km) WNW. Retrieved 2020/10/26 12:33 UTC (3 hours ago):

TAF CYTR 261130Z 2612/2712 05008KT 6SM -RA -DZ BR SCT006 OVC020 TEMPO 2612/2614 3SM -RA BR BKN006 OVC020 FM261400 35008KT 6SM -RA BR SCT005 OVC015 TEMPO 2614/2619 2SM -RA BR OVC005 PROB30 2614/2617 11/2SM -RA BR FM261900 32010KT P6SM BKN010 OVC060 TEMPO 2619/2706 SCT010 OVC060 BECMG 2700/2702 29005KT FM270600 VRB03KT P6SM BKN015 RMK NXT FCST BY 261800Z